sensor_id;sensor_type;location;lat;lon;timestamp;pressure;altitude;pressure_sealevel;temperature;humidity
21664;BME280;10993;52.510;13.456;2023-06-14T00:01:14;56524.34;;;-146.93;62.60
21664;BME280;10993;52.510;13.456;2023-06-14T00:06:15;56542.56;;;-146.93;63.46
21664;BME280;10993;52.510;13.456;2023-06-14T00:11:16;56524.34;;;-146.93;64.98
21664;BME280;10993;52.510;13.456;2023-06-14T00:16:16;56491.94;;;-146.93;66.00
21664;BME280;10993;52.510;13.456;2023-06-14T00:21:18;56506.13;;;-146.93;66.69
21664;BME280;10993;52.510;13.456;2023-06-14T00:26:19;56520.28;;;-146.93;67.26
21664;BME280;10993;52.510;13.456;2023-06-14T00:31:21;56550.66;;;-146.93;67.83
21664;BME280;10993;52.510;13.456;2023-06-14T00:36:23;56498.03;;;-146.93;68.38
21664;BME280;10993;52.510;13.456;2023-06-14T00:41:23;56522.31;;;-146.93;69.07
21664;BME280;10993;52.510;13.456;2023-06-14T00:46:23;56502.06;;;-146.93;69.92
21664;BME280;10993;52.510;13.456;2023-06-14T00:51:25;56477.78;;;-146.93;70.32
21664;BME280;10993;52.510;13.456;2023-06-14T00:56:26;56491.94;;;-146.93;70.86
21664;BME280;10993;52.510;13.456;2023-06-14T01:01:28;56516.25;;;-146.93;71.07
21664;BME280;10993;52.510;13.456;2023-06-14T01:06:35;56465.63;;;-146.93;71.81
21664;BME280;10993;52.510;13.456;2023-06-14T01:11:48;56502.06;;;-146.93;72.30
21664;BME280;10993;52.510;13.456;2023-06-14T01:16:51;56483.84;;;-146.93;72.68
21664;BME280;10993;52.510;13.456;2023-06-14T01:21:55;56512.19;;;-146.93;73.03
21664;BME280;10993;52.510;13.456;2023-06-14T01:26:56;56524.34;;;-146.93;73.15
21664;BME280;10993;52.510;13.456;2023-06-14T01:31:57;56334.03;;;-146.93;73.66
21664;BME280;10993;52.510;13.456;2023-06-14T01:37:00;56463.59;;;-146.93;73.87
21664;BME280;10993;52.510;13.456;2023-06-14T01:42:03;56475.75;;;-146.93;73.96
21664;BME280;10993;52.510;13.456;2023-06-14T01:47:05;56483.84;;;-146.93;74.40
21664;BME280;10993;52.510;13.456;2023-06-14T01:52:06;56483.84;;;-146.93;74.43
21664;BME280;10993;52.510;13.456;2023-06-14T01:57:11;56443.38;;;-146.93;74.82
21664;BME280;10993;52.510;13.456;2023-06-14T02:02:12;56473.72;;;-146.93;75.16
21664;BME280;10993;52.510;13.456;2023-06-14T02:07:12;56471.72;;;-146.93;76.08
21664;BME280;10993;52.510;13.456;2023-06-14T02:12:14;56530.41;;;-146.93;76.38
21664;BME280;10993;52.510;13.456;2023-06-14T02:17:14;56508.16;;;-146.93;76.57
21664;BME280;10993;52.510;13.456;2023-06-14T02:22:15;56408.94;;;-146.93;76.77
21664;BME280;10993;52.510;13.456;2023-06-14T02:27:17;56457.53;;;-146.93;76.83
21664;BME280;10993;52.510;13.456;2023-06-14T02:32:17;56469.69;;;-146.93;77.20
21664;BME280;10993;52.510;13.456;2023-06-14T02:37:17;56469.69;;;-146.93;77.28
21664;BME280;10993;52.510;13.456;2023-06-14T02:42:19;56487.91;;;-146.93;77.03
21664;BME280;10993;52.510;13.456;2023-06-14T02:47:20;56429.19;;;-146.93;77.05
21664;BME280;10993;52.510;13.456;2023-06-14T02:52:20;56479.81;;;-146.93;77.57
21664;BME280;10993;52.510;13.456;2023-06-14T02:57:23;56437.28;;;-146.93;77.73
21664;BME280;10993;52.510;13.456;2023-06-14T03:02:23;56461.59;;;-146.93;78.12
21664;BME280;10993;52.510;13.456;2023-06-14T03:07:24;56524.34;;;-146.93;77.49
21664;BME280;10993;52.510;13.456;2023-06-14T03:12:26;56475.75;;;-146.93;77.33
21664;BME280;10993;52.510;13.456;2023-06-14T03:17:27;56487.91;;;-146.93;76.98
21664;BME280;10993;52.510;13.456;2023-06-14T03:22:30;56491.94;;;-146.93;76.43
21664;BME280;10993;52.510;13.456;2023-06-14T03:27:32;56500.06;;;-146.93;76.11
21664;BME280;10993;52.510;13.456;2023-06-14T03:32:32;56516.25;;;-146.93;75.26
21664;BME280;10993;52.510;13.456;2023-06-14T03:37:33;56520.28;;;-146.93;74.78
21664;BME280;10993;52.510;13.456;2023-06-14T03:42:34;56471.72;;;-146.93;74.38
21664;BME280;10993;52.510;13.456;2023-06-14T03:47:35;56536.50;;;-146.93;74.77
21664;BME280;10993;52.510;13.456;2023-06-14T03:52:36;56498.03;;;-146.93;73.96
21664;BME280;10993;52.510;13.456;2023-06-14T03:57:38;56819.97;;;-146.93;63.74
21664;BME280;10993;52.510;13.456;2023-06-14T04:02:38;57257.34;;;-146.93;48.86
21664;BME280;10993;52.510;13.456;2023-06-14T04:07:38;57326.22;;;-146.93;44.25
21664;BME280;10993;52.510;13.456;2023-06-14T04:12:46;57249.25;;;-146.93;45.88
21664;BME280;10993;52.510;13.456;2023-06-14T04:17:46;57330.25;;;-146.93;42.44
21664;BME280;10993;52.510;13.456;2023-06-14T04:22:47;57818.34;;;-146.93;38.37
21664;BME280;10993;52.510;13.456;2023-06-14T04:27:49;57790.00;;;-146.93;38.31
21664;BME280;10993;52.510;13.456;2023-06-14T04:32:51;58065.47;;;-146.93;36.21
21664;BME280;10993;52.510;13.456;2023-06-14T04:37:53;58083.69;;;-146.93;36.38
21664;BME280;10993;52.510;13.456;2023-06-14T04:42:55;58478.72;;;-146.93;33.80
21664;BME280;10993;52.510;13.456;2023-06-14T04:47:55;58484.78;;;-146.93;34.12
21664;BME280;10993;52.510;13.456;2023-06-14T04:52:59;58263.97;;;-146.93;33.82
21664;BME280;10993;52.510;13.456;2023-06-14T04:58:01;58263.97;;;-146.93;34.33
21664;BME280;10993;52.510;13.456;2023-06-14T05:03:02;57974.31;;;-146.93;35.89
21664;BME280;10993;52.510;13.456;2023-06-14T05:08:03;57698.84;;;-146.93;37.40
21664;BME280;10993;52.510;13.456;2023-06-14T05:13:05;57071.06;;;-146.93;47.50
21664;BME280;10993;52.510;13.456;2023-06-14T05:18:05;57006.25;;;-146.93;50.91
21664;BME280;10993;52.510;13.456;2023-06-14T05:23:08;56824.00;;;-146.93;54.48
21664;BME280;10993;52.510;13.456;2023-06-14T05:28:16;56921.22;;;-146.93;55.33
21664;BME280;10993;52.510;13.456;2023-06-14T05:33:16;56892.84;;;-146.93;56.75
21664;BME280;10993;52.510;13.456;2023-06-14T05:38:17;56900.97;;;-146.93;55.72
21664;BME280;10993;52.510;13.456;2023-06-14T05:43:18;56943.47;;;-146.93;55.57
21664;BME280;10993;52.510;13.456;2023-06-14T05:48:19;57775.81;;;-146.93;57.59
21664;BME280;10993;52.510;13.456;2023-06-14T05:53:19;56832.13;;;-146.93;57.38
21664;BME280;10993;52.510;13.456;2023-06-14T05:58:21;56856.41;;;-146.93;58.59
21664;BME280;10993;52.510;13.456;2023-06-14T06:03:22;56876.66;;;-146.93;58.81
21664;BME280;10993;52.510;13.456;2023-06-14T06:08:22;56931.34;;;-146.93;58.04
21664;BME280;10993;52.510;13.456;2023-06-14T06:13:24;56872.59;;;-146.93;57.88
21664;BME280;10993;52.510;13.456;2023-06-14T06:18:24;56886.78;;;-146.93;57.72
21664;BME280;10993;52.510;13.456;2023-06-14T06:23:25;57245.22;;;-146.93;58.21
21664;BME280;10993;52.510;13.456;2023-06-14T06:28:27;56811.88;;;-146.93;58.46
21664;BME280;10993;52.510;13.456;2023-06-14T06:33:27;56878.69;;;-146.93;59.04
21664;BME280;10993;52.510;13.456;2023-06-14T06:38:28;56862.47;;;-146.93;59.00
21664;BME280;10993;52.510;13.456;2023-06-14T06:43:29;56905.00;;;-146.93;58.20
21664;BME280;10993;52.510;13.456;2023-06-14T06:48:29;56961.69;;;-146.93;57.34
21664;BME280;10993;52.510;13.456;2023-06-14T06:53:30;56961.69;;;-146.93;55.97
21664;BME280;10993;52.510;13.456;2023-06-14T06:58:32;56994.09;;;-146.93;55.43
21664;BME280;10993;52.510;13.456;2023-06-14T07:03:33;57079.16;;;-146.93;53.30
21664;BME280;10993;52.510;13.456;2023-06-14T07:08:33;57206.72;;;-146.93;49.88
21664;BME280;10993;52.510;13.456;2023-06-14T07:13:35;57176.34;;;-146.93;47.48
21664;BME280;10993;52.510;13.456;2023-06-14T07:18:35;57224.97;;;-146.93;48.64
21664;BME280;10993;52.510;13.456;2023-06-14T07:23:37;57354.56;;;-146.93;47.13
21664;BME280;10993;52.510;13.456;2023-06-14T07:28:39;57500.38;;;-146.93;44.29
21664;BME280;10993;52.510;13.456;2023-06-14T07:33:40;57824.44;;;-146.93;39.40
21664;BME280;10993;52.510;13.456;2023-06-14T07:38:40;57866.97;;;-146.93;38.94
21664;BME280;10993;52.510;13.456;2023-06-14T07:43:42;58014.84;;;-146.93;38.19
21664;BME280;10993;52.510;13.456;2023-06-14T07:48:42;58261.97;;;-146.93;36.06
21664;BME280;10993;52.510;13.456;2023-06-14T07:53:43;58458.47;;;-146.93;34.92
21664;BME280;10993;52.510;13.456;2023-06-14T07:58:45;58496.94;;;-146.93;34.54
21664;BME280;10993;52.510;13.456;2023-06-14T08:03:45;58039.13;;;-146.93;36.11
21664;BME280;10993;52.510;13.456;2023-06-14T08:08:45;57941.91;;;-146.93;36.57
21664;BME280;10993;52.510;13.456;2023-06-14T08:13:47;57901.41;;;-146.93;37.78
21664;BME280;10993;52.510;13.456;2023-06-14T08:18:48;58126.25;;;-146.93;36.58
21664;BME280;10993;52.510;13.456;2023-06-14T08:23:48;58039.13;;;-146.93;36.83
21664;BME280;10993;52.510;13.456;2023-06-14T08:28:50;58537.47;;;-146.93;34.20
21664;BME280;10993;52.510;13.456;2023-06-14T08:33:50;58648.91;;;-146.93;33.33
21664;BME280;10993;52.510;13.456;2023-06-14T08:38:51;58636.75;;;-146.93;34.17
21664;BME280;10993;52.510;13.456;2023-06-14T08:43:52;58168.78;;;-146.93;35.23
21664;BME280;10993;52.510;13.456;2023-06-14T08:48:55;58172.84;;;-146.93;34.85
21664;BME280;10993;52.510;13.456;2023-06-14T08:53:57;58047.25;;;-146.93;35.02
21664;BME280;10993;52.510;13.456;2023-06-14T08:58:59;58071.56;;;-146.93;36.28
21664;BME280;10993;52.510;13.456;2023-06-14T09:04:04;58168.78;;;-146.93;35.00
21664;BME280;10993;52.510;13.456;2023-06-14T09:09:05;58353.13;;;-146.93;34.83
21664;BME280;10993;52.510;13.456;2023-06-14T09:14:09;58298.44;;;-146.93;34.21
21664;BME280;10993;52.510;13.456;2023-06-14T09:19:13;58116.13;;;-146.93;34.85
21664;BME280;10993;52.510;13.456;2023-06-14T09:24:14;58079.66;;;-146.93;34.78
21664;BME280;10993;52.510;13.456;2023-06-14T09:29:17;58035.09;;;-146.93;35.11
21664;BME280;10993;52.510;13.456;2023-06-14T09:34:18;57877.09;;;-146.93;36.00
21664;BME280;10993;52.510;13.456;2023-06-14T09:39:20;57980.41;;;-146.93;35.56
21664;BME280;10993;52.510;13.456;2023-06-14T09:44:22;58136.38;;;-146.93;35.00
21664;BME280;10993;52.510;13.456;2023-06-14T09:49:25;58355.16;;;-146.93;34.01
21664;BME280;10993;52.510;13.456;2023-06-14T09:54:26;57913.56;;;-146.93;34.84
21664;BME280;10993;52.510;13.456;2023-06-14T09:59:31;58116.13;;;-146.93;34.98
21664;BME280;10993;52.510;13.456;2023-06-14T10:04:33;58012.81;;;-146.93;35.18
21664;BME280;10993;52.510;13.456;2023-06-14T10:09:34;57826.47;;;-146.93;36.06
21664;BME280;10993;52.510;13.456;2023-06-14T10:14:36;57909.50;;;-146.93;36.46
21664;BME280;10993;52.510;13.456;2023-06-14T10:19:42;58612.44;;;-146.93;36.68
21664;BME280;10993;52.510;13.456;2023-06-14T10:24:45;57743.41;;;-146.93;36.62
21664;BME280;10993;52.510;13.456;2023-06-14T10:30:06;57759.63;;;-146.93;37.01
21664;BME280;10993;52.510;13.456;2023-06-14T10:35:08;57834.56;;;-146.93;36.89
21664;BME280;10993;52.510;13.456;2023-06-14T10:40:29;57974.31;;;-146.93;35.63
21664;BME280;10993;52.510;13.456;2023-06-14T10:45:31;58026.97;;;-146.93;35.17
21664;BME280;10993;52.510;13.456;2023-06-14T10:50:31;57935.84;;;-146.93;35.51
21664;BME280;10993;52.510;13.456;2023-06-14T10:55:35;57984.44;;;-146.93;35.25
21664;BME280;10993;52.510;13.456;2023-06-14T11:00:37;58306.53;;;-146.93;33.40
21664;BME280;10993;52.510;13.456;2023-06-14T11:05:45;58178.91;;;-146.93;33.64
21664;BME280;10993;52.510;13.456;2023-06-14T11:10:49;58164.72;;;-146.93;34.00
21664;BME280;10993;52.510;13.456;2023-06-14T11:15:51;58249.81;;;-146.93;33.37
21664;BME280;10993;52.510;13.456;2023-06-14T11:20:56;58330.84;;;-146.93;33.00
21664;BME280;10993;52.510;13.456;2023-06-14T11:25:57;58276.13;;;-146.93;33.30
21664;BME280;10993;52.510;13.456;2023-06-14T11:31:02;58276.13;;;-146.93;32.95
21664;BME280;10993;52.510;13.456;2023-06-14T11:36:02;58221.44;;;-146.93;32.19
21664;BME280;10993;52.510;13.456;2023-06-14T11:41:03;58454.41;;;-146.93;32.29
21664;BME280;10993;52.510;13.456;2023-06-14T11:46:12;58612.44;;;-146.93;31.57
21664;BME280;10993;52.510;13.456;2023-06-14T11:51:14;58523.28;;;-146.93;31.63
21664;BME280;10993;52.510;13.456;2023-06-14T11:56:14;58501.00;;;-146.93;31.64
21664;BME280;10993;52.510;13.456;2023-06-14T12:01:17;58580.00;;;-146.93;30.42
21664;BME280;10993;52.510;13.456;2023-06-14T12:06:26;58492.91;;;-146.93;30.83
21664;BME280;10993;52.510;13.456;2023-06-14T12:11:32;58393.63;;;-146.93;31.28
21664;BME280;10993;52.510;13.456;2023-06-14T12:16:38;58383.50;;;-146.93;32.11
21664;BME280;10993;52.510;13.456;2023-06-14T12:21:39;58948.75;;;-146.93;32.20
21664;BME280;10993;52.510;13.456;2023-06-14T12:26:42;58255.88;;;-146.93;31.46
21664;BME280;10993;52.510;13.456;2023-06-14T12:31:44;58116.13;;;-146.93;31.21
21664;BME280;10993;52.510;13.456;2023-06-14T12:36:44;58166.75;;;-146.93;31.22
21664;BME280;10993;52.510;13.456;2023-06-14T12:41:46;58245.75;;;-146.93;30.49
21664;BME280;10993;52.510;13.456;2023-06-14T12:46:48;58247.78;;;-146.93;29.50
21664;BME280;10993;52.510;13.456;2023-06-14T12:51:51;58340.97;;;-146.93;29.22
21664;BME280;10993;52.510;13.456;2023-06-14T12:56:51;58458.47;;;-146.93;28.27
21664;BME280;10993;52.510;13.456;2023-06-14T13:01:53;59951.81;;;-146.93;27.88
21664;BME280;10993;52.510;13.456;2023-06-14T13:06:54;58675.22;;;-146.93;27.41
21664;BME280;10993;52.510;13.456;2023-06-14T13:11:54;58642.81;;;-146.93;27.10
21664;BME280;10993;52.510;13.456;2023-06-14T13:16:56;58496.94;;;-146.93;27.55
21664;BME280;10993;52.510;13.456;2023-06-14T13:21:56;58480.75;;;-146.93;27.40
21664;BME280;10993;52.510;13.456;2023-06-14T13:26:57;58409.84;;;-146.93;27.35
21664;BME280;10993;52.510;13.456;2023-06-14T13:31:58;58387.56;;;-146.93;27.47
21664;BME280;10993;52.510;13.456;2023-06-14T13:36:59;58571.91;;;-146.93;27.24
21664;BME280;10993;52.510;13.456;2023-06-14T13:41:59;58567.84;;;-146.93;27.25
21664;BME280;10993;52.510;13.456;2023-06-14T13:47:01;58533.41;;;-146.93;27.18
21664;BME280;10993;52.510;13.456;2023-06-14T13:52:02;58559.75;;;-146.93;26.86
21664;BME280;10993;52.510;13.456;2023-06-14T13:57:03;58517.22;;;-146.93;26.96
21664;BME280;10993;52.510;13.456;2023-06-14T14:02:05;58699.53;;;-146.93;27.50
21664;BME280;10993;52.510;13.456;2023-06-14T14:07:06;58719.81;;;-146.93;27.06
21664;BME280;10993;52.510;13.456;2023-06-14T14:12:07;58727.91;;;-146.93;27.41
21664;BME280;10993;52.510;13.456;2023-06-14T14:17:09;58657.00;;;-146.93;27.53
21664;BME280;10993;52.510;13.456;2023-06-14T14:22:09;58669.16;;;-146.93;27.54
21664;BME280;10993;52.510;13.456;2023-06-14T14:27:10;58877.84;;;-146.93;27.10
21664;BME280;10993;52.510;13.456;2023-06-14T14:32:11;58642.81;;;-146.93;27.07
21664;BME280;10993;52.510;13.456;2023-06-14T14:37:14;58636.75;;;-146.93;27.24
21664;BME280;10993;52.510;13.456;2023-06-14T14:42:15;58630.66;;;-146.93;26.62
21664;BME280;10993;52.510;13.456;2023-06-14T14:47:16;58608.38;;;-146.93;26.80
21664;BME280;10993;52.510;13.456;2023-06-14T14:52:17;58614.44;;;-146.93;26.81
21664;BME280;10993;52.510;13.456;2023-06-14T14:57:17;58626.59;;;-146.93;26.82
21664;BME280;10993;52.510;13.456;2023-06-14T15:02:19;58454.41;;;-146.93;28.32
21664;BME280;10993;52.510;13.456;2023-06-14T15:07:20;57619.88;;;-146.93;29.08
21664;BME280;10993;52.510;13.456;2023-06-14T15:12:20;58128.25;;;-146.93;29.60
21664;BME280;10993;52.510;13.456;2023-06-14T15:17:24;58146.50;;;-146.93;29.48
21664;BME280;10993;52.510;13.456;2023-06-14T15:22:24;58215.38;;;-146.93;29.20
21664;BME280;10993;52.510;13.456;2023-06-14T15:27:25;58233.59;;;-146.93;28.93
21664;BME280;10993;52.510;13.456;2023-06-14T15:32:27;58229.53;;;-146.93;29.06
21664;BME280;10993;52.510;13.456;2023-06-14T15:37:27;58322.72;;;-146.93;28.80
21664;BME280;10993;52.510;13.456;2023-06-14T15:42:28;58385.53;;;-146.93;28.77
21664;BME280;10993;52.510;13.456;2023-06-14T15:47:29;58296.41;;;-146.93;29.17
21664;BME280;10993;52.510;13.456;2023-06-14T15:52:30;58205.25;;;-146.93;29.23
21664;BME280;10993;52.510;13.456;2023-06-14T15:57:30;58077.63;;;-146.93;29.85
21664;BME280;10993;52.510;13.456;2023-06-14T16:02:32;58037.13;;;-146.93;29.89
21664;BME280;10993;52.510;13.456;2023-06-14T16:07:32;57917.59;;;-146.93;30.17
21664;BME280;10993;52.510;13.456;2023-06-14T16:12:33;57988.50;;;-146.93;30.19
21664;BME280;10993;52.510;13.456;2023-06-14T16:17:34;57998.63;;;-146.93;30.21
21664;BME280;10993;52.510;13.456;2023-06-14T16:22:35;57899.38;;;-146.93;30.36
21664;BME280;10993;52.510;13.456;2023-06-14T16:27:35;57913.56;;;-146.93;30.41
21664;BME280;10993;52.510;13.456;2023-06-14T16:32:37;57860.91;;;-146.93;30.84
21664;BME280;10993;52.510;13.456;2023-06-14T16:37:37;57828.47;;;-146.93;30.84
21664;BME280;10993;52.510;13.456;2023-06-14T16:42:37;57903.44;;;-146.93;30.52
21664;BME280;10993;52.510;13.456;2023-06-14T16:47:39;57976.34;;;-146.93;30.66
21664;BME280;10993;52.510;13.456;2023-06-14T16:52:40;57945.97;;;-146.93;30.68
21664;BME280;10993;52.510;13.456;2023-06-14T16:57:40;57901.41;;;-146.93;31.13
21664;BME280;10993;52.510;13.456;2023-06-14T17:02:42;57901.41;;;-146.93;31.22
21664;BME280;10993;52.510;13.456;2023-06-14T17:07:43;57806.22;;;-146.93;31.60
21664;BME280;10993;52.510;13.456;2023-06-14T17:12:43;57783.94;;;-146.93;31.69
21664;BME280;10993;52.510;13.456;2023-06-14T17:17:45;57787.97;;;-146.93;31.78
21664;BME280;10993;52.510;13.456;2023-06-14T17:22:45;57775.81;;;-146.93;31.67
21664;BME280;10993;52.510;13.456;2023-06-14T17:27:46;57802.16;;;-146.93;31.97
21664;BME280;10993;52.510;13.456;2023-06-14T17:32:47;57767.72;;;-146.93;32.07
21664;BME280;10993;52.510;13.456;2023-06-14T17:37:48;57743.41;;;-146.93;32.00
21664;BME280;10993;52.510;13.456;2023-06-14T17:42:48;57763.66;;;-146.93;32.20
21664;BME280;10993;52.510;13.456;2023-06-14T17:47:49;57735.31;;;-146.93;32.29
21664;BME280;10993;52.510;13.456;2023-06-14T17:52:50;57704.94;;;-146.93;32.54
21664;BME280;10993;52.510;13.456;2023-06-14T17:57:50;57739.38;;;-146.93;32.40
21664;BME280;10993;52.510;13.456;2023-06-14T18:02:52;57609.75;;;-146.93;32.71
21664;BME280;10993;52.510;13.456;2023-06-14T18:07:52;57759.63;;;-146.93;32.73
21664;BME280;10993;52.510;13.456;2023-06-14T18:12:53;57672.53;;;-146.93;32.80
21664;BME280;10993;52.510;13.456;2023-06-14T18:17:55;57690.75;;;-146.93;33.11
21664;BME280;10993;52.510;13.456;2023-06-14T18:22:55;57698.84;;;-146.93;33.12
21664;BME280;10993;52.510;13.456;2023-06-14T18:27:56;57739.38;;;-146.93;32.86
21664;BME280;10993;52.510;13.456;2023-06-14T18:32:57;57666.44;;;-146.93;32.75
21664;BME280;10993;52.510;13.456;2023-06-14T18:37:58;57559.13;;;-146.93;32.83
21664;BME280;10993;52.510;13.456;2023-06-14T18:42:58;57530.75;;;-146.93;32.75
21664;BME280;10993;52.510;13.456;2023-06-14T18:48:00;57451.78;;;-146.93;33.21
21664;BME280;10993;52.510;13.456;2023-06-14T18:53:00;58221.44;;;-146.93;33.16
21664;BME280;10993;52.510;13.456;2023-06-14T18:58:01;57638.09;;;-146.93;33.38
21664;BME280;10993;52.510;13.456;2023-06-14T19:03:02;57540.88;;;-146.93;33.29
21664;BME280;10993;52.510;13.456;2023-06-14T19:08:04;57658.34;;;-146.93;33.35
21664;BME280;10993;52.510;13.456;2023-06-14T19:13:04;57506.44;;;-146.93;33.55
21664;BME280;10993;52.510;13.456;2023-06-14T19:18:08;57595.56;;;-146.93;33.84
21664;BME280;10993;52.510;13.456;2023-06-14T19:23:10;57569.25;;;-146.93;33.79
21664;BME280;10993;52.510;13.456;2023-06-14T19:28:11;57599.63;;;-146.93;34.06
21664;BME280;10993;52.510;13.456;2023-06-14T19:33:12;57563.16;;;-146.93;34.08
21664;BME280;10993;52.510;13.456;2023-06-14T19:38:13;57577.34;;;-146.93;34.45
21664;BME280;10993;52.510;13.456;2023-06-14T19:43:13;57571.25;;;-146.93;34.26
21664;BME280;10993;52.510;13.456;2023-06-14T19:48:15;57569.25;;;-146.93;34.40
21664;BME280;10993;52.510;13.456;2023-06-14T19:53:15;57536.84;;;-146.93;34.76
21664;BME280;10993;52.510;13.456;2023-06-14T19:58:18;57512.53;;;-146.93;34.63
21664;BME280;10993;52.510;13.456;2023-06-14T20:03:20;57342.41;;;-146.93;34.87
21664;BME280;10993;52.510;13.456;2023-06-14T20:08:20;57516.59;;;-146.93;34.91
21664;BME280;10993;52.510;13.456;2023-06-14T20:13:24;57496.31;;;-146.93;35.06
21664;BME280;10993;52.510;13.456;2023-06-14T20:18:25;57463.94;;;-146.93;35.22
21664;BME280;10993;52.510;13.456;2023-06-14T20:23:26;57496.31;;;-146.93;35.19
21664;BME280;10993;52.510;13.456;2023-06-14T20:28:26;57445.69;;;-146.93;35.56
21664;BME280;10993;52.510;13.456;2023-06-14T20:33:28;57451.78;;;-146.93;35.53
21664;BME280;10993;52.510;13.456;2023-06-14T20:38:29;57470.00;;;-146.93;35.55
21664;BME280;10993;52.510;13.456;2023-06-14T20:43:30;57480.13;;;-146.93;35.82
21664;BME280;10993;52.510;13.456;2023-06-14T20:48:31;57407.22;;;-146.93;36.22
21664;BME280;10993;52.510;13.456;2023-06-14T20:53:32;57423.41;;;-146.93;36.31
21664;BME280;10993;52.510;13.456;2023-06-14T20:58:32;57384.94;;;-146.93;36.47
21664;BME280;10993;52.510;13.456;2023-06-14T21:03:34;57378.88;;;-146.93;36.55
21664;BME280;10993;52.510;13.456;2023-06-14T21:08:34;57391.00;;;-146.93;36.73
21664;BME280;10993;52.510;13.456;2023-06-14T21:13:36;57380.88;;;-146.93;36.98
21664;BME280;10993;52.510;13.456;2023-06-14T21:18:38;57376.84;;;-146.93;36.86
21664;BME280;10993;52.510;13.456;2023-06-14T21:23:38;57376.84;;;-146.93;37.10
21664;BME280;10993;52.510;13.456;2023-06-14T21:28:39;57350.50;;;-146.93;37.31
21664;BME280;10993;52.510;13.456;2023-06-14T21:33:40;57370.75;;;-146.93;37.19
21664;BME280;10993;52.510;13.456;2023-06-14T21:38:41;57346.47;;;-146.93;37.37
21664;BME280;10993;52.510;13.456;2023-06-14T21:43:41;57346.47;;;-146.93;37.59
21664;BME280;10993;52.510;13.456;2023-06-14T21:48:43;57334.31;;;-146.93;37.66
21664;BME280;10993;52.510;13.456;2023-06-14T21:53:44;57310.00;;;-146.93;37.98
21664;BME280;10993;52.510;13.456;2023-06-14T21:58:50;57293.81;;;-146.93;37.88
21664;BME280;10993;52.510;13.456;2023-06-14T22:03:51;57310.00;;;-146.93;38.07
21664;BME280;10993;52.510;13.456;2023-06-14T22:08:52;57285.72;;;-146.93;38.07
21664;BME280;10993;52.510;13.456;2023-06-14T22:13:52;57340.38;;;-146.93;37.87
21664;BME280;10993;52.510;13.456;2023-06-14T22:18:54;57277.59;;;-146.93;38.29
21664;BME280;10993;52.510;13.456;2023-06-14T22:23:56;57310.00;;;-146.93;38.36
21664;BME280;10993;52.510;13.456;2023-06-14T22:28:57;57241.16;;;-146.93;38.53
21664;BME280;10993;52.510;13.456;2023-06-14T22:34:05;57168.25;;;-146.93;38.92
21664;BME280;10993;52.510;13.456;2023-06-14T22:39:07;57166.22;;;-146.93;38.95
21664;BME280;10993;52.510;13.456;2023-06-14T22:44:08;57212.81;;;-146.93;39.36
21664;BME280;10993;52.510;13.456;2023-06-14T22:49:10;56961.69;;;-146.93;39.54
21664;BME280;10993;52.510;13.456;2023-06-14T22:54:11;56951.59;;;-146.93;40.12
21664;BME280;10993;52.510;13.456;2023-06-14T22:59:12;57131.81;;;-146.93;40.27
21664;BME280;10993;52.510;13.456;2023-06-14T23:04:14;57340.38;;;-146.93;40.49
21664;BME280;10993;52.510;13.456;2023-06-14T23:09:14;57109.53;;;-146.93;41.02
21664;BME280;10993;52.510;13.456;2023-06-14T23:14:15;57050.81;;;-146.93;41.56
21664;BME280;10993;52.510;13.456;2023-06-14T23:19:16;56990.06;;;-146.93;42.09
21664;BME280;10993;52.510;13.456;2023-06-14T23:24:17;56965.75;;;-146.93;42.45
21664;BME280;10993;52.510;13.456;2023-06-14T23:29:19;56992.06;;;-146.93;42.34
21664;BME280;10993;52.510;13.456;2023-06-14T23:34:21;57026.50;;;-146.93;42.92
21664;BME280;10993;52.510;13.456;2023-06-14T23:39:23;57038.66;;;-146.93;42.60
21664;BME280;10993;52.510;13.456;2023-06-14T23:44:23;56969.81;;;-146.93;43.20
21664;BME280;10993;52.510;13.456;2023-06-14T23:49:26;57030.56;;;-146.93;43.67
21664;BME280;10993;52.510;13.456;2023-06-14T23:54:26;56945.50;;;-146.93;43.84
21664;BME280;10993;52.510;13.456;2023-06-14T23:59:27;57050.81;;;-146.93;43.52
